METAR Data
IDs: Format: Raw Decoded Include TAF

Data at: 0937 UTC 20 Sep 2018

PAVD 200856Z AUTO 08004KT 10SM OVC110 07/04 A3010 RMK AO2 SLP220 T00720039 58002
PAVD 200756Z AUTO 08004KT 10SM OVC110 08/04 A3011 RMK AO2 SLP221 T00780044 401330067
PAVD 200656Z AUTO 00000KT 10SM OVC110 08/05 A3011 RMK AO2 SLP221 T00830050
PAVD 200556Z 08004KT 10SM OVC110 08/05 A3011 RMK AO2 SLP221 6//// T00830050 10133 20078 51001
PAVD 200456Z 07004KT 10SM BKN100 09/04 A3011 RMK AO2 SLP221 T00890044
PAVD 200356Z 08004KT 10SM FEW060 BKN100 BKN150 10/05 A3011 RMK AO2 SLP220 T01000050
PAVD 200256Z 00000KT 10SM FEW060 BKN100 12/08 A3011 RMK AO2 SLP220 6//// T01220083 56006
PAVD 200156Z 26003KT 10SM FEW060 BKN100 12/08 A3011 RMK AO2 SLP221 T01220083
PAVD 200056Z 00000KT 10SM FEW070 BKN100 13/08 A3011 RMK AO2 SLP222 T01330078
PAVD 192356Z 24003KT 10SM FEW070 BKN100 13/08 A3012 RMK AO2 SLP226 T01280083 10128 20089 56012
PAVD 192256Z 24004KT 10SM FEW040 BKN100 13/08 A3013 RMK AO2 SLP229 T01280078
PAVD 192156Z 00000KT 10SM BKN100 13/07 A3014 RMK AO2 SLP232 T01280072
PAVD 192056Z 23004KT 10SM BKN100 11/08 A3016 RMK AO2 SLP237 T01110078 58001
PAVD 191956Z 00000KT 10SM OVC100 11/07 A3016 RMK AO2 SLP239 T01060072
PAVD 191856Z 00000KT 10SM FEW080 BKN100 09/07 A3016 RMK AO2 SLP239 T00940072
PAVD 191756Z 00000KT 10SM OVC095 09/07 A3016 RMK AO2 SLP238 T00890067 10089 20067 53001
PAVD 191656Z 00000KT 10SM FEW080 OVC100 08/05 A3016 RMK AO2 SLP238 NMRS BINOVC T00780050
PAVD 191556Z 07003KT 10SM FEW080 BKN100 BKN120 07/04 A3015 RMK AO2 SLP236 T00720044
PAVD 191456Z 00000KT 10SM OVC100 07/05 A3016 RMK AO2 SLP237 NMRS BINOVC T00720050 55003
PAVD 191410Z 07005KT 10SM OVC100 07/04 A3016 RMK AO2 NMRS BINOVC
PAVD 191356Z AUTO 00000KT 10SM OVC100 07/04 A3016 RMK AO2 SLP237 T00720044
PAVD 191256Z AUTO 08003KT 10SM OVC100 07/05 A3016 RMK AO2 SLP239 T00720050
PAVD 191156Z AUTO 00000KT 10SM OVC100 08/06 A3017 RMK AO2 SLP240 T00780061 10089 20067 50000
PAVD 191056Z AUTO 05003KT 10SM OVC100 08/06 A3017 RMK AO2 SLP242 T00780061
PAVD 190956Z AUTO 10003KT 10SM OVC100 07/04 A3017 RMK AO2 SLP243 T00670039
PAVD 190856Z AUTO 00000KT 10SM OVC100 08/06 A3017 RMK AO2 SLP241 T00830056 58001
PAVD 190756Z AUTO 06003KT 10SM OVC100 08/04 A3017 RMK AO2 SLP242 T00830044 401330039
PAVD 190656Z AUTO 08003KT 10SM OVC100 07/04 A3017 RMK AO2 SLP241 T00720039
PAVD 190556Z 08004KT 10SM FEW070 08/04 A3017 RMK AO2 SLP242 T00780044 10133 20078 51005
PAVD 190456Z 00000KT 10SM FEW035 BKN100 BKN150 11/06 A3017 RMK AO2 SLP241 T01060061
PAVD 190356Z 00000KT 10SM FEW065 BKN100 BKN150 12/08 A3016 RMK AO2 SLP239 T01220078
PAVD 190256Z 27005KT 10SM FEW025 BKN090 BKN150 13/08 A3016 RMK AO2 SLP236 T01330083 56004
PAVD 190156Z 20004KT 10SM OVC100 13/08 A3016 RMK AO2 SLP237 T01280078
PAVD 190056Z 20003KT 10SM FEW055 SCT090 SCT120 13/08 A3016 RMK AO2 SLP237 T01330078
PAVD 182356Z 25004KT 10SM FEW060 SCT080 BKN150 13/06 A3017 RMK AO2 SLP241 T01330061 10133 20078 58008
PAVD 182256Z 26004KT 10SM FEW060 BKN090 BKN150 13/06 A3018 RMK AO2 SLP245 T01280061
PAVD 182156Z 25005KT 10SM FEW065 BKN090 BKN150 13/06 A3019 RMK AO2 SLP247 T01280061